sensor_id;sensor_type;location;lat;lon;timestamp;pressure;altitude;pressure_sealevel;temperature;humidity
73981;BME280;62348;51.412;5.436;2024-03-29T00:01:01;98955.22;;;8.19;83.35
73981;BME280;62348;51.412;5.436;2024-03-29T00:03:27;98954.69;;;8.17;82.43
73981;BME280;62348;51.412;5.436;2024-03-29T00:05:53;98952.81;;;8.18;82.72
73981;BME280;62348;51.412;5.436;2024-03-29T00:08:18;98957.38;;;8.17;82.45
73981;BME280;62348;51.412;5.436;2024-03-29T00:10:46;98958.78;;;8.15;83.33
73981;BME280;62348;51.412;5.436;2024-03-29T00:13:12;98960.38;;;8.16;82.73
73981;BME280;62348;51.412;5.436;2024-03-29T00:15:37;98964.16;;;8.15;83.09
73981;BME280;62348;51.412;5.436;2024-03-29T00:18:03;98966.34;;;8.13;82.47
73981;BME280;62348;51.412;5.436;2024-03-29T00:20:29;98972.81;;;8.12;82.91
73981;BME280;62348;51.412;5.436;2024-03-29T00:22:55;98983.56;;;8.12;82.30
73981;BME280;62348;51.412;5.436;2024-03-29T00:25:20;98981.97;;;8.11;83.07
73981;BME280;62348;51.412;5.436;2024-03-29T00:27:45;98991.13;;;8.10;82.83
73981;BME280;62348;51.412;5.436;2024-03-29T00:30:13;98999.22;;;8.10;83.04
73981;BME280;62348;51.412;5.436;2024-03-29T00:32:38;98987.94;;;8.08;82.40
73981;BME280;62348;51.412;5.436;2024-03-29T00:35:04;98990.63;;;8.08;83.31
73981;BME280;62348;51.412;5.436;2024-03-29T00:37:30;98992.00;;;8.05;83.75
73981;BME280;62348;51.412;5.436;2024-03-29T00:39:55;98993.41;;;8.02;84.04
73981;BME280;62348;51.412;5.436;2024-03-29T00:42:20;98997.16;;;8.01;83.68
73981;BME280;62348;51.412;5.436;2024-03-29T00:44:46;98999.63;;;7.98;84.31
73981;BME280;62348;51.412;5.436;2024-03-29T00:47:12;98997.22;;;7.96;84.91
73981;BME280;62348;51.412;5.436;2024-03-29T00:49:38;99013.69;;;7.95;84.85
73981;BME280;62348;51.412;5.436;2024-03-29T00:52:04;99008.88;;;7.92;84.44
73981;BME280;62348;51.412;5.436;2024-03-29T00:54:30;99007.25;;;7.91;84.70
73981;BME280;62348;51.412;5.436;2024-03-29T00:56:55;99010.25;;;7.89;84.89
73981;BME280;62348;51.412;5.436;2024-03-29T00:59:21;99005.16;;;7.88;85.06
73981;BME280;62348;51.412;5.436;2024-03-29T01:01:46;99013.78;;;7.85;85.60
73981;BME280;62348;51.412;5.436;2024-03-29T01:04:12;99021.34;;;7.82;85.80
73981;BME280;62348;51.412;5.436;2024-03-29T01:06:38;99017.34;;;7.80;85.93
73981;BME280;62348;51.412;5.436;2024-03-29T01:09:05;99010.63;;;7.77;86.34
73981;BME280;62348;51.412;5.436;2024-03-29T01:11:31;99010.13;;;7.75;86.56
73981;BME280;62348;51.412;5.436;2024-03-29T01:13:56;99015.50;;;7.75;86.74
73981;BME280;62348;51.412;5.436;2024-03-29T01:16:22;99005.84;;;7.74;86.37
73981;BME280;62348;51.412;5.436;2024-03-29T01:18:48;99000.75;;;7.73;87.34
73981;BME280;62348;51.412;5.436;2024-03-29T01:21:13;98994.56;;;7.72;86.90
73981;BME280;62348;51.412;5.436;2024-03-29T01:23:39;98988.69;;;7.70;87.12
73981;BME280;62348;51.412;5.436;2024-03-29T01:26:06;98986.78;;;7.71;86.88
73981;BME280;62348;51.412;5.436;2024-03-29T01:28:32;98980.91;;;7.69;86.91
73981;BME280;62348;51.412;5.436;2024-03-29T01:30:57;98978.19;;;7.69;87.61
73981;BME280;62348;51.412;5.436;2024-03-29T01:33:25;98978.47;;;7.67;87.74
73981;BME280;62348;51.412;5.436;2024-03-29T01:35:51;98971.50;;;7.66;87.71
73981;BME280;62348;51.412;5.436;2024-03-29T01:38:16;98968.81;;;7.66;88.22
73981;BME280;62348;51.412;5.436;2024-03-29T01:40:42;98961.56;;;7.67;87.92
73981;BME280;62348;51.412;5.436;2024-03-29T01:43:08;98941.91;;;7.66;87.56
73981;BME280;62348;51.412;5.436;2024-03-29T01:45:38;98941.09;;;7.66;88.15
73981;BME280;62348;51.412;5.436;2024-03-29T01:48:05;98937.63;;;7.65;88.33
73981;BME280;62348;51.412;5.436;2024-03-29T01:50:32;98949.97;;;7.66;88.70
73981;BME280;62348;51.412;5.436;2024-03-29T01:52:58;98967.50;;;7.63;88.51
73981;BME280;62348;51.412;5.436;2024-03-29T01:55:23;98946.78;;;7.64;88.57
73981;BME280;62348;51.412;5.436;2024-03-29T01:57:50;98945.97;;;7.63;88.80
73981;BME280;62348;51.412;5.436;2024-03-29T02:00:16;98942.22;;;7.65;88.61
73981;BME280;62348;51.412;5.436;2024-03-29T02:02:42;98937.63;;;7.65;88.58
73981;BME280;62348;51.412;5.436;2024-03-29T02:05:07;98944.59;;;7.66;89.07
73981;BME280;62348;51.412;5.436;2024-03-29T02:07:33;98941.91;;;7.66;89.28
73981;BME280;62348;51.412;5.436;2024-03-29T02:09:59;98949.69;;;7.68;89.28
73981;BME280;62348;51.412;5.436;2024-03-29T02:12:25;98954.00;;;7.69;89.14
73981;BME280;62348;51.412;5.436;2024-03-29T02:14:50;98959.09;;;7.70;88.21
73981;BME280;62348;51.412;5.436;2024-03-29T02:17:15;98969.53;;;7.72;89.17
73981;BME280;62348;51.412;5.436;2024-03-29T02:19:41;98958.50;;;7.73;89.16
73981;BME280;62348;51.412;5.436;2024-03-29T02:22:07;98974.34;;;7.75;89.78
73981;BME280;62348;51.412;5.436;2024-03-29T02:24:35;98963.59;;;7.75;89.42
73981;BME280;62348;51.412;5.436;2024-03-29T02:27:00;98958.72;;;7.77;88.49
73981;BME280;62348;51.412;5.436;2024-03-29T02:29:26;98982.66;;;7.78;89.40
73981;BME280;62348;51.412;5.436;2024-03-29T02:31:51;98973.47;;;7.79;89.28
73981;BME280;62348;51.412;5.436;2024-03-29T02:34:16;98966.47;;;7.84;88.43
73981;BME280;62348;51.412;5.436;2024-03-29T02:36:42;98980.13;;;7.87;87.78
73981;BME280;62348;51.412;5.436;2024-03-29T02:39:09;98971.75;;;7.89;88.40
73981;BME280;62348;51.412;5.436;2024-03-29T02:41:35;98982.75;;;7.92;87.74
73981;BME280;62348;51.412;5.436;2024-03-29T02:44:00;98978.38;;;7.96;88.29
73981;BME280;62348;51.412;5.436;2024-03-29T02:46:25;98991.00;;;8.01;87.19
73981;BME280;62348;51.412;5.436;2024-03-29T02:48:51;98990.91;;;8.06;87.78
73981;BME280;62348;51.412;5.436;2024-03-29T02:51:16;98985.47;;;8.11;87.74
73981;BME280;62348;51.412;5.436;2024-03-29T02:53:42;98976.03;;;8.14;88.41
73981;BME280;62348;51.412;5.436;2024-03-29T02:56:07;98980.81;;;8.17;88.31
73981;BME280;62348;51.412;5.436;2024-03-29T02:58:34;98983.22;;;8.18;88.89
73981;BME280;62348;51.412;5.436;2024-03-29T03:01:07;98999.88;;;8.20;88.62
73981;BME280;62348;51.412;5.436;2024-03-29T03:03:33;99006.06;;;8.21;90.68
73981;BME280;62348;51.412;5.436;2024-03-29T03:05:58;99004.19;;;8.21;92.65
73981;BME280;62348;51.412;5.436;2024-03-29T03:08:23;98994.50;;;8.20;92.13
73981;BME280;62348;51.412;5.436;2024-03-29T03:11:07;99003.69;;;8.19;93.40
73981;BME280;62348;51.412;5.436;2024-03-29T03:13:33;99020.13;;;8.18;93.91
73981;BME280;62348;51.412;5.436;2024-03-29T03:15:58;99005.03;;;8.17;94.08
73981;BME280;62348;51.412;5.436;2024-03-29T03:18:23;99009.13;;;8.14;93.95
73981;BME280;62348;51.412;5.436;2024-03-29T03:20:53;99011.31;;;8.12;93.37
73981;BME280;62348;51.412;5.436;2024-03-29T03:23:19;99012.09;;;8.13;94.13
73981;BME280;62348;51.412;5.436;2024-03-29T03:25:45;99004.31;;;8.11;94.74
73981;BME280;62348;51.412;5.436;2024-03-29T03:28:10;99001.63;;;8.11;94.01
73981;BME280;62348;51.412;5.436;2024-03-29T03:30:40;98999.72;;;8.12;94.66
73981;BME280;62348;51.412;5.436;2024-03-29T03:33:05;98992.75;;;8.11;93.70
73981;BME280;62348;51.412;5.436;2024-03-29T03:35:31;98990.84;;;8.11;94.16
73981;BME280;62348;51.412;5.436;2024-03-29T03:37:56;98997.03;;;8.12;94.53
73981;BME280;62348;51.412;5.436;2024-03-29T03:40:22;98994.34;;;8.12;94.71
73981;BME280;62348;51.412;5.436;2024-03-29T03:42:47;98999.44;;;8.13;94.20
73981;BME280;62348;51.412;5.436;2024-03-29T03:45:13;98984.38;;;8.12;94.45
73981;BME280;62348;51.412;5.436;2024-03-29T03:47:38;98987.88;;;8.13;93.66
73981;BME280;62348;51.412;5.436;2024-03-29T03:50:04;98991.38;;;8.13;94.91
73981;BME280;62348;51.412;5.436;2024-03-29T03:52:29;98995.66;;;8.14;96.20
73981;BME280;62348;51.412;5.436;2024-03-29T03:54:55;99012.09;;;8.13;98.03
73981;BME280;62348;51.412;5.436;2024-03-29T03:57:21;99019.66;;;8.11;100.00
73981;BME280;62348;51.412;5.436;2024-03-29T03:59:46;99013.78;;;8.09;100.00
73981;BME280;62348;51.412;5.436;2024-03-29T04:02:12;99022.69;;;8.04;100.00
73981;BME280;62348;51.412;5.436;2024-03-29T04:04:37;99031.66;;;7.99;100.00
73981;BME280;62348;51.412;5.436;2024-03-29T04:07:03;99040.06;;;7.93;100.00
73981;BME280;62348;51.412;5.436;2024-03-29T04:09:28;99037.16;;;7.89;100.00
73981;BME280;62348;51.412;5.436;2024-03-29T04:11:53;99039.13;;;7.84;100.00
73981;BME280;62348;51.412;5.436;2024-03-29T04:14:19;99049.91;;;7.78;100.00
73981;BME280;62348;51.412;5.436;2024-03-29T04:16:46;99056.97;;;7.74;100.00
73981;BME280;62348;51.412;5.436;2024-03-29T04:19:11;99051.63;;;7.69;100.00
73981;BME280;62348;51.412;5.436;2024-03-29T04:21:36;99040.91;;;7.64;100.00
73981;BME280;62348;51.412;5.436;2024-03-29T04:24:02;99038.28;;;7.59;100.00
73981;BME280;62348;51.412;5.436;2024-03-29T04:26:27;99028.09;;;7.56;100.00
73981;BME280;62348;51.412;5.436;2024-03-29T04:28:53;99021.41;;;7.53;100.00
73981;BME280;62348;51.412;5.436;2024-03-29T04:31:18;99023.03;;;7.49;100.00
73981;BME280;62348;51.412;5.436;2024-03-29T04:33:43;99030.59;;;7.47;100.00
73981;BME280;62348;51.412;5.436;2024-03-29T04:36:09;99046.22;;;7.45;100.00
73981;BME280;62348;51.412;5.436;2024-03-29T04:38:34;99031.47;;;7.42;100.00
73981;BME280;62348;51.412;5.436;2024-03-29T04:41:00;99022.09;;;7.40;100.00
73981;BME280;62348;51.412;5.436;2024-03-29T04:43:27;99028.81;;;7.37;100.00
73981;BME280;62348;51.412;5.436;2024-03-29T04:46:12;99019.44;;;7.35;100.00
73981;BME280;62348;51.412;5.436;2024-03-29T04:48:39;99029.44;;;7.29;100.00
73981;BME280;62348;51.412;5.436;2024-03-29T04:51:05;99020.06;;;7.27;100.00
73981;BME280;62348;51.412;5.436;2024-03-29T04:53:31;99029.47;;;7.24;100.00
73981;BME280;62348;51.412;5.436;2024-03-29T04:55:57;99030.56;;;7.23;100.00
73981;BME280;62348;51.412;5.436;2024-03-29T04:58:24;99024.38;;;7.22;100.00
73981;BME280;62348;51.412;5.436;2024-03-29T05:00:49;99019.31;;;7.21;100.00
73981;BME280;62348;51.412;5.436;2024-03-29T05:03:17;99003.44;;;7.19;100.00
73981;BME280;62348;51.412;5.436;2024-03-29T05:05:43;99011.53;;;7.19;100.00
73981;BME280;62348;51.412;5.436;2024-03-29T05:08:08;99016.91;;;7.19;100.00
73981;BME280;62348;51.412;5.436;2024-03-29T05:10:34;99013.69;;;7.17;100.00
73981;BME280;62348;51.412;5.436;2024-03-29T05:12:59;99004.81;;;7.17;100.00
73981;BME280;62348;51.412;5.436;2024-03-29T05:15:26;99012.88;;;7.17;100.00
73981;BME280;62348;51.412;5.436;2024-03-29T05:17:51;99019.34;;;7.16;100.00
73981;BME280;62348;51.412;5.436;2024-03-29T05:20:18;99015.03;;;7.15;100.00
73981;BME280;62348;51.412;5.436;2024-03-29T05:22:44;98997.59;;;7.12;100.00
73981;BME280;62348;51.412;5.436;2024-03-29T05:25:09;98994.91;;;7.12;100.00
73981;BME280;62348;51.412;5.436;2024-03-29T05:27:34;99008.34;;;7.12;100.00
73981;BME280;62348;51.412;5.436;2024-03-29T05:30:00;99001.34;;;7.11;100.00
73981;BME280;62348;51.412;5.436;2024-03-29T05:32:26;98987.91;;;7.11;100.00
73981;BME280;62348;51.412;5.436;2024-03-29T05:34:51;98982.84;;;7.10;100.00
73981;BME280;62348;51.412;5.436;2024-03-29T05:37:16;98988.22;;;7.10;100.00
73981;BME280;62348;51.412;5.436;2024-03-29T05:39:43;98986.34;;;7.10;100.00
73981;BME280;62348;51.412;5.436;2024-03-29T05:42:08;98989.03;;;7.10;100.00
73981;BME280;62348;51.412;5.436;2024-03-29T05:44:35;98998.97;;;7.10;100.00
73981;BME280;62348;51.412;5.436;2024-03-29T05:47:02;99015.63;;;7.12;100.00
73981;BME280;62348;51.412;5.436;2024-03-29T05:49:29;99022.06;;;7.11;100.00
73981;BME280;62348;51.412;5.436;2024-03-29T05:51:55;99022.84;;;7.11;100.00
73981;BME280;62348;51.412;5.436;2024-03-29T05:54:20;99025.03;;;7.09;100.00
73981;BME280;62348;51.412;5.436;2024-03-29T05:56:48;99036.59;;;7.10;100.00
73981;BME280;62348;51.412;5.436;2024-03-29T05:59:13;99030.41;;;7.09;100.00
73981;BME280;62348;51.412;5.436;2024-03-29T06:01:38;99026.66;;;7.10;100.00
73981;BME280;62348;51.412;5.436;2024-03-29T06:04:04;99041.16;;;7.09;100.00
73981;BME280;62348;51.412;5.436;2024-03-29T06:06:31;99045.47;;;7.10;100.00
73981;BME280;62348;51.412;5.436;2024-03-29T06:08:57;99057.78;;;7.11;100.00
73981;BME280;62348;51.412;5.436;2024-03-29T06:11:22;99055.09;;;7.11;100.00
73981;BME280;62348;51.412;5.436;2024-03-29T06:13:48;99056.72;;;7.12;100.00
73981;BME280;62348;51.412;5.436;2024-03-29T06:16:25;99045.19;;;7.12;100.00
73981;BME280;62348;51.412;5.436;2024-03-29T06:19:08;99048.16;;;7.10;100.00
73981;BME280;62348;51.412;5.436;2024-03-29T06:21:34;99035.50;;;7.11;100.00
73981;BME280;62348;51.412;5.436;2024-03-29T06:24:07;99022.59;;;7.13;100.00
73981;BME280;62348;51.412;5.436;2024-03-29T06:26:33;99037.63;;;7.14;100.00
73981;BME280;62348;51.412;5.436;2024-03-29T06:29:00;99042.44;;;7.17;100.00
73981;BME280;62348;51.412;5.436;2024-03-29T06:31:26;99052.13;;;7.18;100.00
73981;BME280;62348;51.412;5.436;2024-03-29T06:33:51;99060.69;;;7.20;100.00
73981;BME280;62348;51.412;5.436;2024-03-29T06:36:17;99054.53;;;7.19;100.00
73981;BME280;62348;51.412;5.436;2024-03-29T06:38:42;99051.56;;;7.21;100.00
73981;BME280;62348;51.412;5.436;2024-03-29T06:41:07;99048.06;;;7.20;100.00
73981;BME280;62348;51.412;5.436;2024-03-29T06:43:33;99048.88;;;7.21;100.00
73981;BME280;62348;51.412;5.436;2024-03-29T06:45:58;99036.22;;;7.21;100.00
73981;BME280;62348;51.412;5.436;2024-03-29T06:48:24;99028.16;;;7.21;100.00
73981;BME280;62348;51.412;5.436;2024-03-29T06:50:50;99024.38;;;7.22;100.00
73981;BME280;62348;51.412;5.436;2024-03-29T06:53:16;99027.06;;;7.22;100.00
73981;BME280;62348;51.412;5.436;2024-03-29T06:55:41;99030.84;;;7.21;100.00
73981;BME280;62348;51.412;5.436;2024-03-29T06:58:07;99030.06;;;7.21;100.00
73981;BME280;62348;51.412;5.436;2024-03-29T07:00:32;99030.84;;;7.21;100.00
73981;BME280;62348;51.412;5.436;2024-03-29T07:02:58;99024.69;;;7.21;100.00
73981;BME280;62348;51.412;5.436;2024-03-29T07:05:23;99032.44;;;7.22;100.00
73981;BME280;62348;51.412;5.436;2024-03-29T07:07:48;99029.47;;;7.24;100.00
73981;BME280;62348;51.412;5.436;2024-03-29T07:10:14;99032.16;;;7.24;100.00
73981;BME280;62348;51.412;5.436;2024-03-29T07:12:39;99034.56;;;7.26;100.00
73981;BME280;62348;51.412;5.436;2024-03-29T07:15:05;99037.78;;;7.28;100.00
73981;BME280;62348;51.412;5.436;2024-03-29T07:17:30;99052.25;;;7.32;100.00
73981;BME280;62348;51.412;5.436;2024-03-29T07:19:56;99052.50;;;7.35;100.00
73981;BME280;62348;51.412;5.436;2024-03-29T07:22:21;99060.78;;;7.39;100.00
73981;BME280;62348;51.412;5.436;2024-03-29T07:24:47;99063.16;;;7.46;100.00
73981;BME280;62348;51.412;5.436;2024-03-29T07:27:12;99064.66;;;7.57;100.00
73981;BME280;62348;51.412;5.436;2024-03-29T07:29:39;99076.31;;;7.76;100.00
73981;BME280;62348;51.412;5.436;2024-03-29T07:32:05;99078.56;;;7.93;100.00
73981;BME280;62348;51.412;5.436;2024-03-29T07:34:31;99066.88;;;8.03;100.00
73981;BME280;62348;51.412;5.436;2024-03-29T07:36:56;99059.81;;;8.07;100.00
73981;BME280;62348;51.412;5.436;2024-03-29T07:39:21;99067.59;;;8.09;100.00
73981;BME280;62348;51.412;5.436;2024-03-29T07:41:47;99078.38;;;8.09;100.00
73981;BME280;62348;51.412;5.436;2024-03-29T07:44:13;99082.16;;;8.08;100.00
73981;BME280;62348;51.412;5.436;2024-03-29T07:46:38;99077.03;;;8.06;100.00
73981;BME280;62348;51.412;5.436;2024-03-29T07:49:05;99068.78;;;8.02;100.00
73981;BME280;62348;51.412;5.436;2024-03-29T07:51:30;99068.47;;;8.04;100.00
73981;BME280;62348;51.412;5.436;2024-03-29T07:53:56;99055.81;;;8.05;100.00
73981;BME280;62348;51.412;5.436;2024-03-29T07:56:22;99066.28;;;8.06;100.00
73981;BME280;62348;51.412;5.436;2024-03-29T07:58:52;99062.50;;;8.07;100.00
73981;BME280;62348;51.412;5.436;2024-03-29T08:01:18;99058.75;;;8.08;100.00
73981;BME280;62348;51.412;5.436;2024-03-29T08:03:44;99059.53;;;8.09;100.00
73981;BME280;62348;51.412;5.436;2024-03-29T08:06:09;99058.16;;;8.11;100.00
73981;BME280;62348;51.412;5.436;2024-03-29T08:08:35;99053.88;;;8.10;100.00
73981;BME280;62348;51.412;5.436;2024-03-29T08:11:01;99060.03;;;8.11;100.00
73981;BME280;62348;51.412;5.436;2024-03-29T08:13:27;99060.84;;;8.11;100.00
73981;BME280;62348;51.412;5.436;2024-03-29T08:16:00;99061.94;;;8.10;100.00
73981;BME280;62348;51.412;5.436;2024-03-29T08:18:26;99042.00;;;8.11;100.00
73981;BME280;62348;51.412;5.436;2024-03-29T08:20:52;99056.78;;;8.14;100.00
73981;BME280;62348;51.412;5.436;2024-03-29T08:23:20;99055.41;;;8.16;100.00
73981;BME280;62348;51.412;5.436;2024-03-29T08:25:46;99074.47;;;8.20;100.00
73981;BME280;62348;51.412;5.436;2024-03-29T08:28:11;99083.06;;;8.22;100.00
73981;BME280;62348;51.412;5.436;2024-03-29T08:30:37;99070.63;;;8.26;100.00
73981;BME280;62348;51.412;5.436;2024-03-29T08:33:03;99073.03;;;8.28;100.00
73981;BME280;62348;51.412;5.436;2024-03-29T08:35:32;99068.94;;;8.30;100.00
73981;BME280;62348;51.412;5.436;2024-03-29T08:37:58;99072.66;;;8.34;100.00
73981;BME280;62348;51.412;5.436;2024-03-29T08:40:26;99072.09;;;8.37;100.00
73981;BME280;62348;51.412;5.436;2024-03-29T08:42:54;99066.16;;;8.40;100.00
73981;BME280;62348;51.412;5.436;2024-03-29T08:45:19;99064.78;;;8.43;100.00
73981;BME280;62348;51.412;5.436;2024-03-29T08:47:46;99093.53;;;8.48;100.00
73981;BME280;62348;51.412;5.436;2024-03-29T08:50:11;99097.84;;;8.49;100.00
73981;BME280;62348;51.412;5.436;2024-03-29T08:52:38;99091.56;;;8.53;100.00
73981;BME280;62348;51.412;5.436;2024-03-29T08:55:05;99098.81;;;8.58;100.00
73981;BME280;62348;51.412;5.436;2024-03-29T08:57:30;99087.94;;;8.63;100.00
73981;BME280;62348;51.412;5.436;2024-03-29T08:59:56;99097.84;;;8.68;100.00
73981;BME280;62348;51.412;5.436;2024-03-29T09:02:21;99098.88;;;8.72;100.00
73981;BME280;62348;51.412;5.436;2024-03-29T09:04:47;99094.50;;;8.76;100.00
73981;BME280;62348;51.412;5.436;2024-03-29T09:07:12;99095.50;;;8.80;100.00
73981;BME280;62348;51.412;5.436;2024-03-29T09:09:37;99102.47;;;8.86;100.00
73981;BME280;62348;51.412;5.436;2024-03-29T09:12:07;99100.78;;;8.90;100.00
73981;BME280;62348;51.412;5.436;2024-03-29T09:14:33;99108.56;;;8.92;100.00
73981;BME280;62348;51.412;5.436;2024-03-29T09:16:58;99102.59;;;8.95;100.00
73981;BME280;62348;51.412;5.436;2024-03-29T09:19:23;99100.91;;;8.99;100.00
73981;BME280;62348;51.412;5.436;2024-03-29T09:21:50;99106.22;;;9.04;100.00
73981;BME280;62348;51.412;5.436;2024-03-29T09:24:15;99110.22;;;9.07;100.00
73981;BME280;62348;51.412;5.436;2024-03-29T09:26:43;99102.34;;;9.10;100.00
73981;BME280;62348;51.412;5.436;2024-03-29T09:29:08;99104.97;;;9.15;100.00
73981;BME280;62348;51.412;5.436;2024-03-29T09:31:35;99115.91;;;9.24;100.00
73981;BME280;62348;51.412;5.436;2024-03-29T09:34:00;99128.66;;;9.37;100.00
73981;BME280;62348;51.412;5.436;2024-03-29T09:36:26;99134.78;;;9.57;100.00
73981;BME280;62348;51.412;5.436;2024-03-29T09:38:51;99135.53;;;9.76;100.00
73981;BME280;62348;51.412;5.436;2024-03-29T09:41:18;99147.38;;;9.94;100.00
73981;BME280;62348;51.412;5.436;2024-03-29T09:43:46;99136.91;;;10.21;100.00
73981;BME280;62348;51.412;5.436;2024-03-29T09:46:13;99148.34;;;10.45;100.00
73981;BME280;62348;51.412;5.436;2024-03-29T09:48:43;99156.00;;;10.66;100.00
73981;BME280;62348;51.412;5.436;2024-03-29T09:51:11;99151.69;;;10.79;100.00
73981;BME280;62348;51.412;5.436;2024-03-29T09:53:41;99151.78;;;10.87;100.00
73981;BME280;62348;51.412;5.436;2024-03-29T09:56:07;99160.59;;;10.93;100.00
73981;BME280;62348;51.412;5.436;2024-03-29T09:58:34;99162.47;;;10.92;100.00
73981;BME280;62348;51.412;5.436;2024-03-29T10:01:00;99162.81;;;10.91;100.00
73981;BME280;62348;51.412;5.436;2024-03-29T10:03:29;99169.50;;;10.93;100.00
73981;BME280;62348;51.412;5.436;2024-03-29T10:06:01;99168.56;;;10.98;100.00
73981;BME280;62348;51.412;5.436;2024-03-29T10:08:29;99160.06;;;11.05;100.00
73981;BME280;62348;51.412;5.436;2024-03-29T10:10:58;99148.63;;;11.08;100.00
73981;BME280;62348;51.412;5.436;2024-03-29T10:13:24;99140.53;;;11.08;100.00
73981;BME280;62348;51.412;5.436;2024-03-29T10:15:53;99127.50;;;11.10;100.00
73981;BME280;62348;51.412;5.436;2024-03-29T10:18:21;99131.19;;;11.14;100.00
73981;BME280;62348;51.412;5.436;2024-03-29T10:20:47;99135.53;;;11.24;100.00
73981;BME280;62348;51.412;5.436;2024-03-29T10:23:12;99140.03;;;11.28;100.00
73981;BME280;62348;51.412;5.436;2024-03-29T10:25:37;99136.72;;;11.31;100.00
73981;BME280;62348;51.412;5.436;2024-03-29T10:28:03;99138.97;;;11.38;100.00
73981;BME280;62348;51.412;5.436;2024-03-29T10:30:29;99144.75;;;11.45;100.00
73981;BME280;62348;51.412;5.436;2024-03-29T10:32:56;99151.78;;;11.46;100.00
73981;BME280;62348;51.412;5.436;2024-03-29T10:35:22;99154.69;;;11.50;100.00
73981;BME280;62348;51.412;5.436;2024-03-29T10:37:47;99138.94;;;11.52;100.00
73981;BME280;62348;51.412;5.436;2024-03-29T10:40:13;99145.63;;;11.55;100.00
73981;BME280;62348;51.412;5.436;2024-03-29T10:42:43;99146.13;;;11.57;100.00
73981;BME280;62348;51.412;5.436;2024-03-29T10:45:10;99159.03;;;11.60;100.00
73981;BME280;62348;51.412;5.436;2024-03-29T10:47:36;99158.75;;;11.61;100.00
73981;BME280;62348;51.412;5.436;2024-03-29T10:50:02;99162.84;;;11.59;100.00
73981;BME280;62348;51.412;5.436;2024-03-29T10:52:30;99179.38;;;11.57;100.00
73981;BME280;62348;51.412;5.436;2024-03-29T10:54:56;99186.88;;;11.51;100.00
73981;BME280;62348;51.412;5.436;2024-03-29T10:57:26;99200.22;;;11.48;100.00
73981;BME280;62348;51.412;5.436;2024-03-29T11:00:04;99189.88;;;11.50;100.00
73981;BME280;62348;51.412;5.436;2024-03-29T11:02:42;99192.28;;;11.51;100.00
73981;BME280;62348;51.412;5.436;2024-03-29T11:05:12;99198.78;;;11.50;100.00
73981;BME280;62348;51.412;5.436;2024-03-29T11:07:40;99194.16;;;11.51;100.00
73981;BME280;62348;51.412;5.436;2024-03-29T11:10:13;99185.81;;;11.61;100.00
73981;BME280;62348;51.412;5.436;2024-03-29T11:15:37;99146.59;;;11.81;100.00
73981;BME280;62348;51.412;5.436;2024-03-29T11:18:03;99147.25;;;11.87;100.00
73981;BME280;62348;51.412;5.436;2024-03-29T11:20:30;99143.69;;;12.00;100.00
73981;BME280;62348;51.412;5.436;2024-03-29T11:23:11;99161.44;;;12.15;100.00
73981;BME280;62348;51.412;5.436;2024-03-29T11:25:42;99172.00;;;12.25;100.00
73981;BME280;62348;51.412;5.436;2024-03-29T11:28:10;99162.63;;;12.32;97.28
73981;BME280;62348;51.412;5.436;2024-03-29T11:30:42;99181.63;;;12.32;95.82
73981;BME280;62348;51.412;5.436;2024-03-29T11:33:08;99178.91;;;12.32;95.73
73981;BME280;62348;51.412;5.436;2024-03-29T11:35:47;99181.25;;;12.24;94.88
73981;BME280;62348;51.412;5.436;2024-03-29T11:38:17;99176.63;;;12.25;95.76
73981;BME280;62348;51.412;5.436;2024-03-29T11:40:53;99176.03;;;12.37;97.19
73981;BME280;62348;51.412;5.436;2024-03-29T11:43:18;99170.22;;;12.52;95.94
73981;BME280;62348;51.412;5.436;2024-03-29T11:45:44;99185.56;;;12.65;93.04
73981;BME280;62348;51.412;5.436;2024-03-29T11:48:13;99180.63;;;12.76;93.36
73981;BME280;62348;51.412;5.436;2024-03-29T11:50:40;99183.66;;;12.83;93.62
73981;BME280;62348;51.412;5.436;2024-03-29T11:53:06;99184.50;;;12.93;92.21
73981;BME280;62348;51.412;5.436;2024-03-29T11:55:31;99198.88;;;13.02;90.95
73981;BME280;62348;51.412;5.436;2024-03-29T11:57:59;99187.84;;;13.07;88.85
73981;BME280;62348;51.412;5.436;2024-03-29T12:00:24;99196.16;;;13.11;88.08
73981;BME280;62348;51.412;5.436;2024-03-29T12:02:55;99196.50;;;13.09;86.64
73981;BME280;62348;51.412;5.436;2024-03-29T12:05:22;99196.50;;;13.09;88.05
73981;BME280;62348;51.412;5.436;2024-03-29T12:07:48;99201.91;;;13.18;90.61
73981;BME280;62348;51.412;5.436;2024-03-29T12:10:13;99212.31;;;13.24;88.73
73981;BME280;62348;51.412;5.436;2024-03-29T12:12:39;99199.06;;;13.32;90.74
73981;BME280;62348;51.412;5.436;2024-03-29T12:15:07;99195.56;;;13.40;89.89
73981;BME280;62348;51.412;5.436;2024-03-29T12:17:33;99194.13;;;13.51;91.21
73981;BME280;62348;51.412;5.436;2024-03-29T12:19:59;99193.97;;;13.65;89.32
73981;BME280;62348;51.412;5.436;2024-03-29T12:22:31;99205.94;;;13.73;86.40
73981;BME280;62348;51.412;5.436;2024-03-29T12:24:57;99212.16;;;13.73;84.70
73981;BME280;62348;51.412;5.436;2024-03-29T12:27:23;99210.41;;;13.69;84.17
73981;BME280;62348;51.412;5.436;2024-03-29T12:29:52;99213.28;;;13.63;84.90
73981;BME280;62348;51.412;5.436;2024-03-29T12:32:19;99198.44;;;13.61;86.02
73981;BME280;62348;51.412;5.436;2024-03-29T12:34:45;99207.88;;;13.55;86.26
73981;BME280;62348;51.412;5.436;2024-03-29T12:37:10;99213.16;;;13.51;85.40
73981;BME280;62348;51.412;5.436;2024-03-29T12:39:37;99205.16;;;13.55;86.53
73981;BME280;62348;51.412;5.436;2024-03-29T12:42:04;99213.13;;;13.60;85.65
73981;BME280;62348;51.412;5.436;2024-03-29T12:44:30;99207.38;;;13.61;85.36
73981;BME280;62348;51.412;5.436;2024-03-29T12:46:58;99204.66;;;13.61;85.20
73981;BME280;62348;51.412;5.436;2024-03-29T12:49:26;99200.53;;;13.64;85.95
73981;BME280;62348;51.412;5.436;2024-03-29T12:51:51;99190.13;;;13.66;87.16
73981;BME280;62348;51.412;5.436;2024-03-29T12:54:17;99193.97;;;13.65;86.86
73981;BME280;62348;51.412;5.436;2024-03-29T12:56:44;99197.00;;;13.63;85.40
73981;BME280;62348;51.412;5.436;2024-03-29T12:59:09;99206.75;;;13.64;87.29
73981;BME280;62348;51.412;5.436;2024-03-29T13:01:35;99210.25;;;13.65;85.50